createdAt,value
2023-01-21T00:00:36.119Z,48.13
2023-01-21T00:01:38.524Z,48.14
2023-01-21T00:02:41.066Z,48.13
2023-01-21T00:03:44.007Z,48.14
2023-01-21T00:04:47.412Z,48.13
2023-01-21T00:05:49.772Z,48.15
2023-01-21T00:06:52.082Z,48.17
2023-01-21T00:07:55.387Z,48.21
2023-01-21T00:09:01.251Z,48.21
2023-01-21T00:10:05.073Z,48.21
2023-01-21T00:11:08.333Z,48.20
2023-01-21T00:12:11.237Z,48.17
2023-01-21T00:13:13.551Z,48.15
2023-01-21T00:14:15.835Z,48.12
2023-01-21T00:15:19.132Z,48.14
2023-01-21T00:16:21.639Z,48.16
2023-01-21T00:17:24.259Z,48.21
2023-01-21T00:18:28.751Z,48.23
2023-01-21T00:19:31.527Z,48.23
2023-01-21T00:20:36.449Z,48.25
2023-01-21T00:21:38.975Z,48.25
2023-01-21T00:22:41.718Z,48.24
2023-01-21T00:23:45.076Z,48.26
2023-01-21T00:24:48.533Z,48.28
2023-01-21T00:25:59.574Z,48.32
2023-01-21T00:27:03.438Z,48.30
2023-01-21T00:28:05.855Z,48.27
2023-01-21T00:29:09.454Z,48.29
2023-01-21T00:30:14.608Z,48.25
2023-01-21T00:31:17.327Z,48.27
2023-01-21T00:32:19.786Z,48.27
2023-01-21T00:33:22.877Z,48.27
2023-01-21T00:34:25.866Z,48.29
2023-01-21T00:35:28.660Z,48.28
2023-01-21T00:36:31.157Z,48.31
2023-01-21T00:37:33.570Z,48.29
2023-01-21T00:38:37.128Z,48.30
2023-01-21T00:39:41.414Z,48.31
2023-01-21T00:40:44.782Z,48.30
2023-01-21T00:41:47.264Z,48.26
2023-01-21T00:42:49.584Z,48.28
2023-01-21T00:43:52.852Z,48.28
2023-01-21T00:44:56.877Z,48.28
2023-01-21T00:45:59.511Z,48.25
2023-01-21T00:47:01.907Z,48.24
2023-01-21T00:48:04.931Z,48.24
2023-01-21T00:49:08.169Z,48.24
2023-01-21T00:50:11.094Z,48.23
2023-01-21T00:51:13.749Z,48.24
2023-01-21T00:52:16.180Z,48.21
2023-01-21T00:53:20.419Z,48.23
2023-01-21T00:54:23.190Z,48.23
2023-01-21T00:55:26.070Z,48.21
2023-01-21T00:56:29.250Z,48.21
2023-01-21T00:57:32.174Z,48.21
2023-01-21T00:58:34.983Z,48.21
2023-01-21T00:59:38.660Z,48.21
2023-01-21T01:00:41.509Z,48.19
2023-01-21T01:01:44.027Z,48.17
2023-01-21T01:02:46.496Z,48.18
2023-01-21T01:03:49.965Z,48.17
2023-01-21T01:04:53.364Z,48.19
2023-01-21T01:05:59.885Z,48.17
2023-01-21T01:07:02.945Z,48.17
2023-01-21T01:08:05.948Z,48.15
2023-01-21T01:09:08.927Z,48.12
2023-01-21T01:10:12.283Z,48.12
2023-01-21T01:11:15.327Z,48.12
2023-01-21T01:12:18.305Z,48.11
2023-01-21T01:13:21.673Z,48.12
2023-01-21T01:14:24.174Z,48.11
2023-01-21T01:15:27.203Z,48.23
2023-01-21T01:16:29.847Z,48.23
2023-01-21T01:17:33.084Z,48.27
2023-01-21T01:18:35.962Z,48.32
2023-01-21T01:19:38.792Z,48.42
2023-01-21T01:20:47.150Z,48.38
2023-01-21T01:21:52.683Z,48.45
2023-01-21T01:22:55.556Z,48.39
2023-01-21T01:24:00.355Z,48.36
2023-01-21T01:25:03.708Z,48.39
2023-01-21T01:26:09.553Z,48.38
2023-01-21T01:27:12.252Z,48.38
2023-01-21T01:28:14.786Z,48.43
2023-01-21T01:29:18.035Z,48.19
2023-01-21T01:30:20.621Z,48.19
2023-01-21T01:31:23.237Z,48.34
2023-01-21T01:32:26.035Z,48.34
2023-01-21T01:33:29.140Z,48.41
2023-01-21T01:34:31.507Z,48.43
2023-01-21T01:35:35.515Z,48.45
2023-01-21T01:36:39.061Z,48.46
2023-01-21T01:37:41.960Z,48.42
2023-01-21T01:38:44.736Z,48.41
2023-01-21T01:39:48.626Z,48.45
2023-01-21T01:41:22.369Z,48.49
2023-01-21T01:42:25.362Z,48.55
2023-01-21T01:43:48.694Z,48.55
2023-01-21T01:44:59.565Z,48.48
2023-01-21T01:46:02.361Z,48.44
2023-01-21T01:47:05.652Z,48.40
2023-01-21T01:48:09.519Z,48.43
2023-01-21T01:49:15.411Z,48.49
2023-01-21T01:50:19.737Z,48.48
2023-01-21T01:51:25.471Z,48.47
2023-01-21T01:52:28.549Z,48.53
2023-01-21T01:53:31.258Z,48.65
2023-01-21T01:54:42.936Z,48.66
2023-01-21T01:55:45.190Z,48.56
2023-01-21T01:56:50.107Z,48.52
2023-01-21T01:57:53.161Z,48.52
2023-01-21T01:58:55.727Z,48.50
2023-01-21T02:00:02.423Z,48.50
2023-01-21T02:01:06.873Z,48.47
2023-01-21T02:02:12.731Z,48.47
2023-01-21T02:03:34.167Z,48.48
2023-01-21T02:04:39.838Z,48.45
2023-01-21T02:05:42.803Z,48.43
2023-01-21T02:06:45.327Z,48.46
2023-01-21T02:07:48.801Z,48.43
2023-01-21T02:08:52.136Z,48.40
2023-01-21T02:09:56.221Z,48.42
2023-01-21T02:11:00.382Z,48.38
2023-01-21T02:12:04.595Z,48.41
2023-01-21T02:13:07.581Z,48.42
2023-01-21T02:14:10.768Z,48.44
2023-01-21T02:15:13.566Z,48.41
2023-01-21T02:16:32.211Z,48.40
2023-01-21T02:17:55.362Z,48.42
2023-01-21T02:19:11.670Z,48.37
2023-01-21T02:20:41.983Z,48.38
2023-01-21T02:22:17.052Z,48.41
2023-01-21T02:23:22.226Z,48.37
2023-01-21T02:24:37.791Z,48.37
2023-01-21T02:26:09.074Z,48.44
2023-01-21T02:27:34.775Z,48.48
2023-01-21T02:28:43.913Z,48.48
2023-01-21T02:29:55.853Z,48.53
2023-01-21T02:31:32.533Z,48.55
2023-01-21T02:32:41.368Z,48.59
2023-01-21T02:34:10.699Z,48.62
2023-01-21T02:35:19.790Z,48.64
2023-01-21T02:36:44.348Z,48.66
2023-01-21T02:37:50.526Z,48.66
2023-01-21T02:38:59.585Z,48.64
2023-01-21T02:40:08.730Z,48.72
2023-01-21T02:41:30.234Z,48.74
2023-01-21T02:42:45.774Z,48.76
2023-01-21T02:43:51.967Z,48.76
2023-01-21T02:45:16.584Z,48.79
2023-01-21T02:46:38.706Z,48.71
2023-01-21T02:47:50.787Z,48.74
2023-01-21T02:48:57.887Z,48.71
2023-01-21T02:50:09.408Z,48.75
2023-01-21T02:51:13.004Z,48.80
2023-01-21T02:52:19.712Z,48.76
2023-01-21T02:53:30.157Z,48.76
2023-01-21T02:54:42.862Z,48.81
2023-01-21T02:55:45.262Z,48.82
2023-01-21T02:56:49.490Z,48.81
2023-01-21T02:57:54.068Z,48.82
2023-01-21T02:58:59.242Z,48.80
2023-01-21T03:00:04.630Z,48.78
2023-01-21T03:01:20.733Z,48.81
2023-01-21T03:02:37.038Z,48.78
2023-01-21T03:05:44.533Z,48.68
2023-01-21T03:06:59.528Z,48.67
2023-01-21T03:08:12.669Z,48.62
2023-01-21T03:09:18.345Z,48.61
2023-01-21T03:10:33.741Z,48.62
2023-01-21T03:11:39.440Z,48.63
2023-01-21T03:12:52.130Z,48.63
2023-01-21T03:14:17.340Z,48.68
2023-01-21T03:15:47.916Z,48.64
2023-01-21T03:16:57.143Z,48.62
2023-01-21T03:18:21.679Z,48.65
2023-01-21T03:19:36.823Z,48.64
2023-01-21T03:20:43.116Z,48.63
2023-01-21T03:21:45.753Z,48.66
2023-01-21T03:22:49.007Z,48.68
2023-01-21T03:23:52.534Z,48.70
2023-01-21T03:24:56.281Z,48.81
2023-01-21T03:25:59.325Z,48.81
2023-01-21T03:27:02.357Z,48.69
2023-01-21T03:28:08.545Z,48.69
2023-01-21T03:29:14.667Z,48.71
2023-01-21T03:30:18.573Z,48.69
2023-01-21T03:32:36.276Z,48.62
2023-01-21T03:33:39.781Z,48.58
2023-01-21T03:34:45.345Z,48.56
2023-01-21T03:35:48.694Z,48.56
2023-01-21T03:36:54.608Z,48.57
2023-01-21T03:38:05.894Z,48.57
2023-01-21T03:39:17.921Z,48.50
2023-01-21T03:40:30.871Z,48.43
2023-01-21T03:41:36.346Z,48.41
2023-01-21T03:42:38.752Z,48.41
2023-01-21T03:43:41.330Z,48.41
2023-01-21T03:44:43.839Z,48.46
2023-01-21T03:45:50.723Z,48.40
2023-01-21T03:47:00.154Z,48.40
2023-01-21T03:48:09.112Z,48.37
2023-01-21T03:49:35.045Z,48.38
2023-01-21T03:50:39.568Z,48.31
2023-01-21T03:51:52.227Z,48.41
2023-01-21T03:52:54.572Z,48.43
2023-01-21T03:53:57.680Z,48.52
2023-01-21T03:55:00.837Z,48.46
2023-01-21T03:56:04.095Z,48.38
2023-01-21T03:57:06.400Z,48.38
2023-01-21T03:58:09.158Z,48.40
2023-01-21T03:59:11.455Z,48.37
2023-01-21T04:00:15.589Z,48.34
2023-01-21T04:01:18.935Z,48.37
2023-01-21T04:02:21.634Z,48.36
2023-01-21T04:03:24.656Z,48.37
2023-01-21T04:04:27.586Z,48.32
2023-01-21T04:05:30.920Z,48.34
2023-01-21T04:06:33.563Z,48.34
2023-01-21T04:07:36.060Z,48.35
2023-01-21T04:08:39.098Z,48.38
2023-01-21T04:09:41.651Z,48.42
2023-01-21T04:10:44.173Z,48.44
2023-01-21T04:11:47.008Z,48.46
2023-01-21T04:12:49.408Z,48.50
2023-01-21T04:13:53.657Z,48.51
2023-01-21T04:14:57.570Z,48.47
2023-01-21T04:15:59.985Z,48.44
2023-01-21T04:17:02.598Z,48.46
2023-01-21T04:18:05.304Z,48.37
2023-01-21T04:19:08.257Z,48.28
2023-01-21T04:20:12.324Z,48.25
2023-01-21T04:21:14.815Z,48.22
2023-01-21T04:22:17.947Z,48.19
2023-01-21T04:23:21.084Z,48.14
2023-01-21T04:24:23.555Z,48.13
2023-01-21T04:25:26.834Z,48.05
2023-01-21T04:26:29.318Z,48.05
2023-01-21T04:27:32.924Z,48.07
2023-01-21T04:28:35.264Z,48.05
2023-01-21T04:29:38.265Z,48.03
2023-01-21T04:30:40.933Z,48.06
2023-01-21T04:31:44.048Z,48.03
2023-01-21T04:32:46.455Z,48.01
2023-01-21T04:33:49.047Z,48.00
2023-01-21T04:34:51.983Z,48.00
2023-01-21T04:35:59.466Z,48.00
2023-01-21T04:37:03.078Z,47.98
2023-01-21T04:38:05.588Z,47.96
2023-01-21T04:39:10.754Z,47.93
2023-01-21T04:40:14.823Z,47.96
2023-01-21T04:41:17.690Z,47.97
2023-01-21T04:42:20.442Z,47.94
2023-01-21T04:43:25.047Z,47.94
2023-01-21T04:44:28.545Z,47.92
2023-01-21T04:45:31.084Z,47.92
2023-01-21T04:46:33.619Z,47.93
2023-01-21T04:47:36.665Z,47.92
2023-01-21T04:48:39.076Z,47.92
2023-01-21T04:49:43.525Z,47.92
2023-01-21T04:50:46.649Z,47.91
2023-01-21T04:51:49.159Z,47.90
2023-01-21T04:52:51.804Z,47.88
2023-01-21T04:53:54.983Z,47.91
2023-01-21T04:54:57.740Z,47.89
2023-01-21T04:56:00.775Z,47.88
2023-01-21T04:57:04.274Z,47.88
2023-01-21T04:58:06.993Z,47.86
2023-01-21T04:59:10.604Z,47.86
2023-01-21T05:00:14.110Z,47.92
2023-01-21T05:01:16.757Z,48.06
2023-01-21T05:02:19.938Z,48.11
2023-01-21T05:03:22.439Z,48.11
2023-01-21T05:04:26.064Z,48.23
2023-01-21T05:05:28.873Z,48.26
2023-01-21T05:06:31.522Z,48.25
2023-01-21T05:07:34.175Z,48.24
2023-01-21T05:08:37.467Z,48.26
2023-01-21T05:09:41.151Z,48.28
2023-01-21T05:10:45.251Z,48.23
2023-01-21T05:11:49.695Z,48.23
2023-01-21T05:12:52.159Z,48.23
2023-01-21T05:13:55.745Z,48.35
2023-01-21T05:14:58.696Z,48.35
2023-01-21T05:16:07.039Z,48.37
2023-01-21T05:17:09.630Z,48.40
2023-01-21T05:18:13.327Z,48.42
2023-01-21T05:19:28.622Z,48.53
2023-01-21T05:20:32.382Z,48.64
2023-01-21T05:21:34.629Z,48.68
2023-01-21T05:22:37.367Z,48.68
2023-01-21T05:23:40.795Z,48.71
2023-01-21T05:24:43.153Z,48.68
2023-01-21T05:25:46.329Z,48.64
2023-01-21T05:26:50.308Z,48.67
2023-01-21T05:27:53.667Z,48.64
2023-01-21T05:28:57.002Z,48.61
2023-01-21T05:30:01.168Z,48.51
2023-01-21T05:31:04.848Z,48.45
2023-01-21T05:32:07.348Z,48.38
2023-01-21T05:33:09.982Z,48.38
2023-01-21T05:34:12.631Z,48.40
2023-01-21T05:35:17.664Z,48.35
2023-01-21T05:36:20.963Z,48.35
2023-01-21T05:37:23.518Z,48.39
2023-01-21T05:38:25.812Z,48.38
2023-01-21T05:39:28.906Z,48.38
2023-01-21T05:40:31.460Z,48.36
2023-01-21T05:41:34.327Z,48.39
2023-01-21T05:42:36.689Z,48.39
2023-01-21T05:43:38.978Z,48.40
2023-01-21T05:44:42.574Z,48.38
2023-01-21T05:45:46.900Z,48.38
2023-01-21T05:46:49.444Z,48.27
2023-01-21T05:47:51.796Z,48.29
2023-01-21T05:48:54.223Z,48.21
2023-01-21T05:49:58.396Z,48.15
2023-01-21T05:51:05.414Z,48.15
2023-01-21T05:52:08.784Z,48.19
2023-01-21T05:53:11.165Z,48.19
2023-01-21T05:54:13.940Z,48.21
2023-01-21T05:55:16.670Z,48.30
2023-01-21T05:56:19.059Z,48.46
2023-01-21T05:57:22.453Z,48.55
2023-01-21T05:58:25.840Z,48.65
2023-01-21T05:59:28.415Z,48.75
2023-01-21T06:00:31.009Z,48.81
2023-01-21T06:01:34.789Z,48.81
2023-01-21T06:02:37.215Z,48.78
2023-01-21T06:03:40.689Z,48.67
2023-01-21T06:04:43.890Z,48.59
2023-01-21T06:05:48.480Z,48.54
2023-01-21T06:06:51.487Z,48.48
2023-01-21T06:07:53.983Z,48.50
2023-01-21T06:08:56.928Z,48.57
2023-01-21T06:09:59.411Z,48.73
2023-01-21T06:11:02.055Z,48.88
2023-01-21T06:12:05.483Z,49.02
2023-01-21T06:13:10.664Z,49.21
2023-01-21T06:14:13.330Z,49.38
2023-01-21T06:15:16.417Z,49.44
2023-01-21T06:16:19.035Z,49.61
2023-01-21T06:17:22.676Z,49.76
2023-01-21T06:18:27.242Z,49.82
2023-01-21T06:19:29.709Z,49.79
2023-01-21T06:20:32.331Z,49.81
2023-01-21T06:21:35.636Z,49.81
2023-01-21T06:22:38.376Z,49.89
2023-01-21T06:23:42.210Z,49.89
2023-01-21T06:24:44.773Z,49.89
2023-01-21T06:25:47.099Z,49.88
2023-01-21T06:26:50.597Z,49.90
2023-01-21T06:27:56.613Z,49.99
2023-01-21T06:28:59.520Z,49.94
2023-01-21T06:30:02.187Z,49.95
2023-01-21T06:31:04.975Z,49.92
2023-01-21T06:32:07.660Z,49.91
2023-01-21T06:33:10.196Z,49.88
2023-01-21T06:34:12.870Z,49.86
2023-01-21T06:35:17.186Z,49.83
2023-01-21T06:36:21.567Z,49.80
2023-01-21T06:37:24.648Z,49.79
2023-01-21T06:38:27.012Z,49.80
2023-01-21T06:39:29.204Z,49.80
2023-01-21T06:40:31.695Z,49.79
2023-01-21T06:41:34.508Z,49.79
2023-01-21T06:42:37.695Z,49.81
2023-01-21T06:43:40.589Z,49.81
2023-01-21T06:45:57.205Z,49.83
2023-01-21T06:47:02.173Z,49.82
2023-01-21T06:48:05.822Z,49.80
2023-01-21T06:49:08.796Z,49.75
2023-01-21T06:51:26.441Z,49.64
2023-01-21T06:52:28.707Z,49.55
2023-01-21T06:53:31.022Z,49.54
2023-01-21T06:54:34.491Z,49.47
2023-01-21T06:55:36.931Z,49.46
2023-01-21T06:56:41.243Z,49.33
2023-01-21T06:57:44.358Z,49.25
2023-01-21T06:58:47.580Z,49.23
2023-01-21T06:59:50.491Z,49.23
2023-01-21T07:00:56.140Z,49.22
2023-01-21T07:02:00.046Z,49.24
2023-01-21T07:03:03.575Z,49.10
2023-01-21T07:04:06.773Z,49.07
2023-01-21T07:05:09.509Z,49.04
2023-01-21T07:06:13.066Z,49.01
2023-01-21T07:07:15.449Z,48.98
2023-01-21T07:08:18.333Z,48.89
2023-01-21T07:09:21.776Z,48.89
2023-01-21T07:10:25.616Z,48.83
2023-01-21T07:11:28.710Z,48.79
2023-01-21T07:12:31.338Z,48.75
2023-01-21T07:13:34.541Z,48.66
2023-01-21T07:14:37.944Z,48.62
2023-01-21T07:15:40.405Z,48.54
2023-01-21T07:16:43.220Z,48.51
2023-01-21T07:17:45.434Z,48.43
2023-01-21T07:18:48.232Z,48.59
2023-01-21T07:19:52.799Z,48.60
2023-01-21T07:20:55.501Z,48.54
2023-01-21T07:22:00.605Z,48.65
2023-01-21T07:23:04.362Z,48.63
2023-01-21T07:24:08.598Z,48.67
2023-01-21T07:25:11.553Z,48.62
2023-01-21T07:26:14.851Z,48.64
2023-01-21T07:27:17.829Z,48.60
2023-01-21T07:28:20.829Z,48.51
2023-01-21T07:29:24.636Z,48.44
2023-01-21T07:30:27.640Z,48.44
2023-01-21T07:31:30.139Z,48.35
2023-01-21T07:32:33.639Z,48.27
2023-01-21T07:33:36.290Z,48.21
2023-01-21T07:34:38.594Z,48.10
2023-01-21T07:35:41.256Z,47.96
2023-01-21T07:36:44.205Z,47.91
2023-01-21T07:37:46.602Z,47.82
2023-01-21T07:38:49.817Z,47.78
2023-01-21T07:39:54.567Z,47.71
2023-01-21T07:40:56.975Z,47.68
2023-01-21T07:41:59.952Z,47.66
2023-01-21T07:43:03.579Z,47.57
2023-01-21T07:44:07.126Z,47.50
2023-01-21T07:46:25.249Z,47.50
2023-01-21T07:47:28.821Z,47.37
2023-01-21T07:48:32.747Z,47.39
2023-01-21T07:49:36.984Z,47.42
2023-01-21T07:50:40.551Z,47.37
2023-01-21T07:51:46.241Z,47.38
2023-01-21T07:52:49.417Z,47.34
2023-01-21T07:53:51.903Z,47.29
2023-01-21T07:54:54.212Z,47.25
2023-01-21T07:55:56.911Z,47.21
2023-01-21T07:56:59.340Z,47.17
2023-01-21T07:58:01.978Z,47.16
2023-01-21T07:59:04.355Z,47.08
2023-01-21T08:00:09.685Z,47.04
2023-01-21T08:01:15.608Z,46.98
2023-01-21T08:02:18.683Z,46.95
2023-01-21T08:03:22.677Z,46.95
2023-01-21T08:04:26.011Z,46.94
2023-01-21T08:05:28.805Z,46.96
2023-01-21T08:06:32.956Z,46.94
2023-01-21T08:07:36.105Z,46.96
2023-01-21T08:08:38.362Z,46.92
2023-01-21T08:09:40.810Z,46.88
2023-01-21T08:10:44.194Z,46.84
2023-01-21T08:11:46.759Z,46.82
2023-01-21T08:12:49.073Z,46.78
2023-01-21T08:13:51.568Z,46.72
2023-01-21T08:14:54.436Z,46.72
2023-01-21T08:15:56.905Z,46.65
2023-01-21T08:17:00.050Z,46.64
2023-01-21T08:18:03.310Z,46.60
2023-01-21T08:19:08.486Z,46.54
2023-01-21T08:20:12.755Z,46.54
2023-01-21T08:21:18.075Z,46.52
2023-01-21T08:22:20.725Z,46.48
2023-01-21T08:23:23.345Z,46.43
2023-01-21T08:24:25.743Z,46.41
2023-01-21T08:25:28.134Z,46.38
2023-01-21T08:26:30.585Z,46.34
2023-01-21T08:27:32.923Z,46.37
2023-01-21T08:28:35.549Z,46.33
2023-01-21T08:29:38.420Z,46.33
2023-01-21T08:30:41.574Z,46.34
2023-01-21T08:31:44.864Z,46.28
2023-01-21T08:32:48.613Z,46.23
2023-01-21T08:33:51.456Z,46.21
2023-01-21T08:34:54.594Z,46.17
2023-01-21T08:36:01.248Z,46.20
2023-01-21T08:37:03.703Z,46.22
2023-01-21T08:38:07.158Z,46.15
2023-01-21T08:39:11.160Z,46.19
2023-01-21T08:40:14.702Z,46.09
2023-01-21T08:41:17.239Z,46.05
2023-01-21T08:42:19.878Z,46.09
2023-01-21T08:43:22.339Z,46.05
2023-01-21T08:44:25.665Z,46.08
2023-01-21T08:45:28.373Z,46.09
2023-01-21T08:46:31.764Z,46.10
2023-01-21T08:47:34.191Z,46.12
2023-01-21T08:48:39.560Z,46.12
2023-01-21T08:49:42.769Z,46.09
2023-01-21T08:50:45.636Z,46.06
2023-01-21T08:51:48.885Z,46.19
2023-01-21T08:52:52.818Z,46.19
2023-01-21T08:53:55.319Z,46.01
2023-01-21T08:54:57.768Z,46.03
2023-01-21T08:56:03.965Z,46.00
2023-01-21T08:57:06.978Z,45.88
2023-01-21T08:58:10.368Z,45.82
2023-01-21T08:59:12.859Z,45.78
2023-01-21T09:00:17.368Z,45.76
2023-01-21T09:01:19.868Z,45.70
2023-01-21T09:02:23.061Z,45.66
2023-01-21T09:03:25.557Z,45.69
2023-01-21T09:04:28.006Z,45.65
2023-01-21T09:05:30.423Z,45.63
2023-01-21T09:06:32.963Z,45.60
2023-01-21T09:07:35.529Z,45.56
2023-01-21T09:08:38.841Z,45.56
2023-01-21T09:09:43.233Z,45.54
2023-01-21T09:11:01.800Z,45.64
2023-01-21T09:12:07.334Z,45.67
2023-01-21T09:13:10.350Z,45.65
2023-01-21T09:14:12.826Z,45.68
2023-01-21T09:15:17.264Z,45.65
2023-01-21T09:16:23.316Z,45.62
2023-01-21T09:17:26.901Z,45.60
2023-01-21T09:18:33.424Z,45.55
2023-01-21T09:19:35.875Z,45.55
2023-01-21T09:20:39.197Z,45.46
2023-01-21T09:21:42.035Z,45.42
2023-01-21T09:22:45.451Z,45.45
2023-01-21T09:23:47.756Z,45.39
2023-01-21T09:24:50.267Z,45.28
2023-01-21T09:25:54.007Z,44.64
2023-01-21T09:26:57.019Z,44.44
2023-01-21T09:28:00.339Z,44.44
2023-01-21T09:29:02.873Z,44.26
2023-01-21T09:30:06.779Z,43.60
2023-01-21T09:31:14.399Z,43.60
2023-01-21T09:32:17.536Z,43.54
2023-01-21T09:33:21.077Z,43.37
2023-01-21T09:34:24.782Z,43.32
2023-01-21T09:35:27.262Z,43.20
2023-01-21T09:36:31.398Z,41.45
2023-01-21T09:38:51.114Z,42.15
2023-01-21T09:39:55.592Z,41.96
2023-01-21T09:41:26.043Z,41.76
2023-01-21T09:42:30.923Z,41.68
2023-01-21T09:43:37.033Z,40.27
2023-01-21T13:40:57.188Z,48.97
2023-01-21T13:42:06.119Z,49.17
2023-01-21T13:43:18.280Z,48.49
2023-01-21T13:44:57.544Z,48.40
2023-01-21T13:46:04.170Z,48.70
2023-01-21T13:47:29.283Z,48.44
2023-01-21T13:48:39.144Z,48.11
2023-01-21T13:49:45.602Z,47.66
2023-01-21T13:51:07.329Z,46.27
2023-01-21T13:52:17.156Z,45.29
2023-01-21T13:53:26.722Z,45.35
2023-01-21T13:54:39.888Z,46.28
2023-01-21T13:55:58.136Z,46.10
2023-01-21T13:57:14.041Z,45.82
2023-01-21T14:00:01.735Z,45.01
2023-01-21T14:01:32.812Z,44.92
2023-01-21T14:02:59.522Z,44.63
2023-01-21T14:04:11.793Z,43.62
2023-01-21T14:05:36.102Z,43.15
2023-01-21T14:06:53.061Z,42.84
2023-01-21T14:08:31.024Z,42.70
2023-01-21T14:09:49.133Z,42.64
2023-01-21T14:12:19.264Z,40.75
2023-01-21T14:14:57.332Z,41.61
2023-01-21T14:16:34.067Z,41.56
2023-01-21T14:17:52.362Z,41.23
2023-01-21T14:20:38.912Z,41.93
2023-01-21T14:21:55.127Z,41.77
2023-01-21T14:23:18.995Z,41.52
2023-01-21T14:24:42.026Z,41.40
2023-01-21T14:26:08.219Z,41.11
2023-01-21T14:27:24.977Z,40.69
2023-01-21T14:28:33.024Z,40.75
2023-01-21T14:31:01.967Z,40.80
2023-01-21T14:32:23.127Z,40.86
2023-01-21T14:33:32.311Z,40.94
2023-01-21T14:34:44.627Z,40.60
2023-01-21T14:37:13.360Z,40.65
2023-01-21T14:38:32.688Z,40.02
2023-01-21T14:39:58.905Z,38.81
2023-01-21T14:42:21.992Z,39.34
2023-01-21T14:44:53.870Z,38.65
2023-01-21T14:45:57.406Z,37.79
2023-01-21T14:47:23.836Z,37.82
2023-01-21T14:48:40.976Z,37.48
2023-01-21T14:49:49.220Z,38.12
2023-01-21T14:50:56.375Z,37.94
2023-01-21T14:51:58.820Z,37.05
2023-01-21T14:53:03.113Z,37.61
2023-01-21T14:54:15.011Z,37.55
2023-01-21T14:55:31.054Z,37.78
2023-01-21T14:56:33.913Z,37.42
2023-01-21T14:57:37.937Z,37.86
2023-01-21T14:58:46.212Z,36.96
2023-01-21T14:59:49.747Z,37.43
2023-01-21T15:00:53.161Z,36.97
2023-01-21T15:03:21.093Z,37.08
2023-01-21T15:04:33.754Z,36.42
2023-01-21T15:05:36.831Z,36.75
2023-01-21T15:06:41.238Z,36.69
2023-01-21T15:07:46.449Z,36.97
2023-01-21T15:08:54.702Z,36.46
2023-01-21T15:09:58.950Z,36.75
2023-01-21T15:11:03.534Z,36.72
2023-01-21T15:12:08.815Z,36.85
2023-01-21T15:13:39.737Z,37.20
2023-01-21T15:14:44.210Z,37.35
2023-01-21T15:16:06.994Z,37.54
2023-01-21T15:17:29.792Z,37.70
2023-01-21T15:19:54.288Z,37.95
2023-01-21T15:20:57.906Z,37.98
2023-01-21T15:22:10.063Z,38.07
2023-01-21T15:24:41.219Z,38.19
2023-01-21T15:26:12.890Z,38.41
2023-01-21T15:28:46.084Z,38.42
2023-01-21T15:30:04.769Z,38.29
2023-01-21T15:31:09.272Z,38.17
2023-01-21T15:32:23.550Z,38.24
2023-01-21T15:33:27.319Z,38.24
2023-01-21T15:34:30.308Z,38.16
2023-01-21T15:35:34.141Z,38.23
2023-01-21T15:36:47.462Z,38.46
2023-01-21T15:37:55.289Z,38.44
2023-01-21T15:39:15.947Z,38.76
2023-01-21T15:40:22.461Z,38.89
2023-01-21T15:41:29.831Z,39.02
2023-01-21T15:42:56.586Z,39.28
2023-01-21T15:44:32.926Z,39.01
2023-01-21T15:46:05.093Z,38.61
2023-01-21T15:49:25.806Z,38.14
2023-01-21T15:50:38.374Z,38.47
2023-01-21T15:52:03.079Z,38.71
2023-01-21T15:53:12.598Z,39.11
2023-01-21T15:54:22.155Z,37.83
2023-01-21T15:55:50.668Z,38.58
2023-01-21T15:57:02.932Z,38.48
2023-01-21T15:58:19.004Z,38.75
2023-01-21T15:59:45.521Z,38.65
2023-01-21T16:01:10.990Z,38.15
2023-01-21T16:02:33.987Z,38.38
2023-01-21T16:03:40.020Z,38.41
2023-01-21T16:06:26.754Z,38.85
2023-01-21T16:07:50.726Z,38.89
2023-01-21T16:10:24.422Z,39.07
2023-01-21T16:11:51.379Z,39.15
2023-01-21T16:13:31.333Z,39.19
2023-01-21T16:14:40.210Z,39.26
2023-01-21T16:16:09.364Z,39.48
2023-01-21T16:18:46.993Z,39.70
2023-01-21T16:19:52.420Z,39.48
2023-01-21T16:20:55.797Z,39.33
2023-01-21T16:22:01.432Z,39.31
2023-01-21T16:23:05.225Z,39.14
2023-01-21T16:25:23.244Z,38.72
2023-01-21T16:26:27.506Z,38.69
2023-01-21T16:27:31.694Z,38.64
2023-01-21T16:28:43.671Z,38.74
2023-01-21T16:29:47.440Z,38.86
2023-01-21T16:30:58.427Z,39.08
2023-01-21T16:32:02.037Z,39.29
2023-01-21T16:33:13.918Z,39.47
2023-01-21T16:34:41.613Z,39.42
2023-01-21T16:35:51.085Z,39.57
2023-01-21T16:36:54.195Z,39.67
2023-01-21T16:37:57.400Z,39.78
2023-01-21T16:39:05.225Z,39.73
2023-01-21T16:40:20.422Z,39.78
2023-01-21T16:41:23.601Z,39.79
2023-01-21T16:42:40.402Z,39.79
2023-01-21T16:44:02.949Z,39.79
2023-01-21T16:45:18.100Z,40.01
2023-01-21T16:46:37.338Z,39.79
2023-01-21T16:47:40.009Z,39.44
2023-01-21T16:48:42.308Z,39.48
2023-01-21T16:49:44.667Z,39.62
2023-01-21T16:50:47.970Z,39.67
2023-01-21T16:53:07.890Z,39.72
2023-01-21T16:54:24.250Z,39.77
2023-01-21T16:55:29.669Z,39.89
2023-01-21T16:56:33.196Z,39.80
2023-01-21T16:57:36.997Z,39.68
2023-01-21T16:58:39.677Z,39.78
2023-01-21T16:59:48.925Z,39.73
2023-01-21T17:01:07.633Z,39.79
2023-01-21T17:02:27.581Z,39.78
2023-01-21T17:03:31.648Z,39.41
2023-01-21T17:04:35.138Z,39.06
2023-01-21T17:05:38.217Z,38.97
2023-01-21T17:06:41.133Z,39.20
2023-01-21T17:07:48.889Z,39.39
2023-01-21T17:08:55.244Z,39.49
2023-01-21T17:11:15.628Z,39.50
2023-01-21T17:12:23.326Z,39.49
2023-01-21T17:13:26.903Z,39.42
2023-01-21T17:14:30.832Z,39.59
2023-01-21T17:15:36.933Z,39.59
2023-01-21T17:16:39.928Z,39.48
2023-01-21T17:17:43.389Z,39.31
2023-01-21T17:18:58.302Z,39.26
2023-01-21T17:20:01.913Z,39.30
2023-01-21T17:21:07.410Z,39.42
2023-01-21T17:22:21.327Z,40.39
2023-01-21T17:23:39.897Z,40.72
2023-01-21T17:24:54.984Z,40.70
2023-01-21T17:26:20.542Z,40.44
2023-01-21T17:27:24.759Z,40.79
2023-01-21T17:29:45.862Z,40.51
2023-01-21T17:30:49.057Z,40.40
2023-01-21T17:32:03.719Z,40.34
2023-01-21T17:33:09.408Z,40.22
2023-01-21T17:34:19.404Z,40.37
2023-01-21T17:35:23.680Z,40.31
2023-01-21T17:36:31.753Z,40.30
2023-01-21T17:37:55.423Z,40.21
2023-01-21T17:38:58.647Z,40.35
2023-01-21T17:40:01.423Z,40.25
2023-01-21T17:41:06.838Z,40.13
2023-01-21T17:43:51.818Z,40.21
2023-01-21T17:44:56.308Z,40.19
2023-01-21T17:45:58.845Z,40.63
2023-01-21T21:27:21.737Z,49.51
2023-01-21T21:28:24.281Z,48.58
2023-01-21T21:29:27.191Z,48.58
2023-01-21T21:30:31.679Z,48.61
2023-01-21T21:32:51.839Z,47.85
2023-01-21T21:33:59.892Z,48.48
2023-01-21T21:36:24.340Z,47.10
2023-01-21T21:37:26.711Z,47.76
2023-01-21T21:38:30.848Z,47.40
2023-01-21T21:39:35.323Z,47.29
2023-01-21T21:40:37.805Z,46.87
2023-01-21T21:41:58.496Z,46.69
2023-01-21T21:43:20.231Z,46.93
2023-01-21T21:44:23.635Z,46.35
2023-01-21T21:45:27.625Z,46.43
2023-01-21T21:46:49.610Z,45.88
2023-01-21T21:48:11.120Z,45.59
2023-01-21T21:49:14.740Z,44.94
2023-01-21T21:50:17.794Z,45.03
2023-01-21T21:51:22.374Z,44.52
2023-01-21T21:52:26.418Z,44.78
2023-01-21T21:53:31.152Z,44.45
2023-01-21T21:54:34.963Z,44.13
2023-01-21T21:55:37.166Z,44.20
2023-01-21T21:56:40.471Z,43.66
2023-01-21T21:57:42.862Z,43.57
2023-01-21T21:58:46.571Z,44.01
2023-01-21T21:59:48.782Z,43.92
2023-01-21T22:00:53.498Z,43.80
2023-01-21T22:01:56.391Z,44.06
2023-01-21T22:03:01.570Z,43.80
2023-01-21T22:04:04.521Z,43.63
2023-01-21T22:05:09.605Z,43.46
2023-01-21T22:06:13.101Z,43.32
2023-01-21T22:07:17.695Z,43.38
2023-01-21T22:08:21.935Z,43.16
2023-01-21T22:09:25.218Z,43.50
2023-01-21T22:10:27.915Z,43.44
2023-01-21T22:11:31.391Z,42.40
2023-01-21T22:12:34.451Z,42.33
2023-01-21T22:13:39.519Z,42.14
2023-01-21T22:14:43.585Z,42.31
2023-01-21T22:17:01.404Z,42.99
2023-01-21T22:18:04.518Z,42.89
2023-01-21T22:19:08.765Z,42.63
2023-01-21T22:20:13.718Z,42.73
2023-01-21T22:21:22.215Z,43.06
2023-01-21T22:22:27.437Z,42.76
2023-01-21T22:23:30.590Z,42.92
2023-01-21T22:24:33.489Z,42.52
2023-01-21T22:25:39.418Z,42.48
2023-01-21T22:26:43.454Z,42.41
2023-01-21T22:27:45.850Z,42.63
2023-01-21T22:28:51.055Z,42.71
2023-01-21T22:31:12.611Z,41.84
2023-01-21T22:32:15.705Z,41.87
2023-01-21T22:33:20.747Z,41.98
2023-01-21T22:34:23.612Z,41.87
2023-01-21T22:35:27.044Z,41.53
2023-01-21T22:36:30.133Z,41.37